Time;durP1;ratioP1;P1;durP2;ratioP2;P2;SDS_P1;SDS_P2;PMS_P1;PMS_P2;Temp;Humidity;BMP_temperature;BMP_pressure;BME280_temperature;BME280_humidity;BME280_pressure;Samples;Min_cycle;Max_cycle;Signal;HPM_P1;HPM_P2
2023/05/06 00:00:13;;;;;;;;;;;12.80;99.90;;;;;;5093095;28;19924;-71
2023/05/06 00:02:39;;;;;;;;;;;12.80;99.90;;;;;;5091347;28;19931;-71
2023/05/06 00:05:04;;;;;;;;;;;12.80;99.90;;;;;;5092936;28;19924;-71
2023/05/06 00:07:30;;;;;;;;;;;12.80;99.90;;;;;;5092300;28;19969;-71
2023/05/06 00:09:55;;;;;;;;;;;12.80;99.90;;;;;;5093216;28;19931;-71
2023/05/06 00:12:21;;;;;;;;;;;12.80;99.90;;;;;;5092732;28;19928;-72
2023/05/06 00:14:46;;;;;;;;;;;12.70;99.90;;;;;;5092985;28;19924;-71
2023/05/06 00:17:12;;;;;;;;;;;12.80;99.90;;;;;;5093671;28;19932;-71
2023/05/06 00:19:37;;;;;;;;;;;12.80;99.90;;;;;;5091780;28;19928;-72
2023/05/06 00:22:03;;;;;;;;;;;12.80;99.90;;;;;;5091547;28;19928;-71
2023/05/06 00:24:28;;;;;;;;;;;12.80;99.90;;;;;;5092381;28;19969;-71
2023/05/06 00:26:54;;;;;;;;;;;12.80;99.90;;;;;;5091254;28;20479;-71
2023/05/06 00:29:19;;;;;;;;;;;12.80;99.90;;;;;;5095639;28;20455;-71
2023/05/06 00:31:45;;;;;;;;;;;12.80;99.90;;;;;;5095686;28;20301;-72
2023/05/06 00:34:11;;;;;;;;;;;12.80;99.90;;;;;;5096922;28;19924;-71
2023/05/06 00:36:36;;;;;;;;;;;12.80;99.90;;;;;;5092190;28;20031;-72
2023/05/06 00:39:02;;;;;;;;;;;12.80;99.90;;;;;;5093184;28;20393;-71
2023/05/06 00:41:31;;;;;;;;;;;12.80;99.90;;;;;;5092313;28;20381;-71
2023/05/06 00:43:57;;;;;;;;;;;12.70;99.90;;;;;;5093502;28;19935;-71
2023/05/06 00:46:23;;;;;;;;;;;12.70;99.90;;;;;;5093352;28;19924;-71
2023/05/06 00:48:48;;;;;;;;;;;12.70;99.90;;;;;;5090702;28;19928;-71
2023/05/06 00:51:14;;;;;;;;;;;12.70;99.90;;;;;;5092406;28;20298;-71
2023/05/06 00:53:39;;;;;;;;;;;12.60;99.90;;;;;;5079798;28;20609;-71
2023/05/06 00:56:05;;;;;;;;;;;12.60;99.90;;;;;;5091985;28;19924;-71
2023/05/06 00:58:31;;;;;;;;;;;12.60;99.90;;;;;;5089564;28;20054;-71
2023/05/06 01:00:57;;;;;;;;;;;12.60;99.90;;;;;;5087551;28;19963;-71
2023/05/06 01:03:23;;;;;;;;;;;12.50;99.90;;;;;;5088718;28;19964;-72
2023/05/06 01:06:11;;;;;;;;;;;12.40;99.90;;;;;;5087988;28;20015;-72
2023/05/06 01:08:46;;;;;;;;;;;12.40;99.90;;;;;;5090114;28;19924;-71
2023/05/06 01:11:13;;;;;;;;;;;12.30;99.90;;;;;;5094276;28;19931;-71
2023/05/06 01:13:51;;;;;;;;;;;12.30;99.90;;;;;;5093706;28;20020;-71
2023/05/06 01:16:20;;;;;;;;;;;12.30;99.90;;;;;;5094226;28;20583;-71
2023/05/06 01:18:47;;;;;;;;;;;12.20;99.90;;;;;;5093837;28;19924;-71
2023/05/06 01:21:14;;;;;;;;;;;12.20;99.90;;;;;;5091368;28;19981;-71
2023/05/06 01:23:49;;;;;;;;;;;12.20;99.90;;;;;;5091399;28;19928;-71
2023/05/06 01:26:14;;;;;;;;;;;12.20;99.90;;;;;;5090585;28;19993;-71
2023/05/06 01:28:40;;;;;;;;;;;12.20;99.90;;;;;;5091301;28;20028;-71
2023/05/06 01:31:09;;;;;;;;;;;12.20;99.90;;;;;;5090099;28;19931;-71
2023/05/06 01:34:00;;;;;;;;;;;12.20;99.90;;;;;;5094527;28;20055;-71
2023/05/06 01:36:37;;;;;;;;;;;12.10;99.90;;;;;;5094785;28;19974;-72
2023/05/06 01:39:21;;;;;;;;;;;12.10;99.90;;;;;;5094972;28;19927;-71
2023/05/06 01:41:48;;;;;;;;;;;12.00;99.90;;;;;;5080491;28;19924;-71
2023/05/06 01:44:15;;;;;;;;;;;12.00;99.90;;;;;;5090945;28;19928;-71
2023/05/06 01:46:41;;;;;;;;;;;12.00;99.90;;;;;;5089504;28;19935;-71
2023/05/06 01:49:10;;;;;;;;;;;12.00;99.90;;;;;;5090116;28;19924;-71
2023/05/06 01:51:36;;;;;;;;;;;12.10;99.90;;;;;;5091809;28;19924;-71
2023/05/06 01:54:01;;;;;;;;;;;12.00;99.90;;;;;;5091417;28;19931;-71
2023/05/06 01:56:29;;;;;;;;;;;12.00;99.90;;;;;;5091358;28;19924;-71
2023/05/06 01:58:58;;;;;;;;;;;12.10;99.90;;;;;;5090605;28;19928;-71
2023/05/06 02:01:23;;;;;;;;;;;12.10;99.90;;;;;;5091357;28;19928;-71
2023/05/06 02:03:49;;;;;;;;;;;12.10;99.90;;;;;;5091264;28;20058;-71
2023/05/06 02:06:14;;;;;;;;;;;12.10;99.90;;;;;;5073007;28;19979;-71
2023/05/06 02:08:40;;;;;;;;;;;12.10;99.90;;;;;;5089922;28;19978;-70
2023/05/06 02:11:05;;;;;;;;;;;12.10;99.90;;;;;;5097776;28;19923;-70
2023/05/06 02:13:31;;;;;;;;;;;12.10;99.90;;;;;;5090467;28;19956;-70
2023/05/06 02:15:56;;;;;;;;;;;12.10;99.90;;;;;;5095785;28;20018;-70
2023/05/06 02:18:22;;;;;;;;;;;12.10;99.90;;;;;;5093973;28;19974;-71
2023/05/06 02:20:47;;;;;;;;;;;12.10;99.90;;;;;;5097631;28;20366;-71
2023/05/06 02:23:13;;;;;;;;;;;12.10;99.90;;;;;;5076213;28;20015;-71
2023/05/06 02:25:38;;;;;;;;;;;12.10;99.90;;;;;;5099319;28;20396;-71
2023/05/06 02:28:04;;;;;;;;;;;12.00;99.90;;;;;;5095260;28;20420;-71
2023/05/06 02:30:31;;;;;;;;;;;12.00;99.90;;;;;;5099356;28;19949;-70
2023/05/06 02:32:57;;;;;;;;;;;12.00;99.90;;;;;;5094716;28;20356;-71
2023/05/06 02:35:22;;;;;;;;;;;11.90;99.90;;;;;;5098420;28;20014;-71
2023/05/06 02:37:48;;;;;;;;;;;11.90;99.90;;;;;;5095362;28;20024;-70
2023/05/06 02:40:14;;;;;;;;;;;11.80;99.90;;;;;;5098556;28;20347;-70
2023/05/06 02:42:39;;;;;;;;;;;11.80;99.90;;;;;;5095213;28;19966;-71
2023/05/06 02:45:05;;;;;;;;;;;11.80;99.90;;;;;;5099756;28;19931;-71
2023/05/06 02:47:30;;;;;;;;;;;11.70;99.90;;;;;;5095067;28;19969;-71
2023/05/06 02:49:56;;;;;;;;;;;11.70;99.90;;;;;;5099383;28;20358;-70
2023/05/06 02:52:21;;;;;;;;;;;11.70;99.90;;;;;;5094640;28;19924;-71
2023/05/06 02:54:47;;;;;;;;;;;11.70;99.90;;;;;;5098853;28;19924;-71
2023/05/06 02:57:12;;;;;;;;;;;11.60;99.90;;;;;;5095000;28;19924;-71
2023/05/06 02:59:38;;;;;;;;;;;11.60;99.90;;;;;;5099651;28;19930;-71
2023/05/06 03:02:03;;;;;;;;;;;11.60;99.90;;;;;;5097061;28;20432;-71
2023/05/06 03:04:29;;;;;;;;;;;11.60;99.90;;;;;;5093742;28;19928;-70
2023/05/06 03:06:55;;;;;;;;;;;11.60;99.90;;;;;;5097982;28;20294;-71
2023/05/06 03:09:20;;;;;;;;;;;11.60;99.90;;;;;;5093916;28;19924;-71
2023/05/06 03:11:46;;;;;;;;;;;11.60;99.90;;;;;;5078692;28;20400;-71
2023/05/06 03:14:11;;;;;;;;;;;11.60;99.90;;;;;;5089687;28;19928;-71
2023/05/06 03:16:37;;;;;;;;;;;11.60;99.90;;;;;;5088211;28;19924;-71
2023/05/06 03:19:02;;;;;;;;;;;11.60;99.90;;;;;;5089561;28;19934;-70
2023/05/06 03:21:28;;;;;;;;;;;11.60;99.90;;;;;;5089210;28;20390;-71
2023/05/06 03:23:54;;;;;;;;;;;11.60;99.90;;;;;;5089771;28;20318;-70
2023/05/06 03:26:20;;;;;;;;;;;11.60;99.90;;;;;;5087706;28;19928;-71
2023/05/06 03:28:45;;;;;;;;;;;11.60;99.90;;;;;;5070951;28;19928;-71
2023/05/06 03:31:11;;;;;;;;;;;11.70;99.90;;;;;;5093665;28;19931;-70
2023/05/06 03:33:37;;;;;;;;;;;11.70;99.90;;;;;;5089413;28;20316;-70
2023/05/06 03:36:03;;;;;;;;;;;11.70;99.90;;;;;;5088998;28;20422;-71
2023/05/06 03:38:28;;;;;;;;;;;11.70;99.90;;;;;;5092024;28;19924;-71
2023/05/06 03:40:54;;;;;;;;;;;11.70;99.90;;;;;;5094033;28;20432;-71
2023/05/06 03:43:19;;;;;;;;;;;11.70;99.90;;;;;;5098305;28;19931;-71
2023/05/06 03:45:45;;;;;;;;;;;11.60;99.90;;;;;;5095429;28;20370;-71
2023/05/06 03:48:10;;;;;;;;;;;11.60;99.90;;;;;;5097656;28;20346;-71
2023/05/06 03:50:36;;;;;;;;;;;11.60;99.90;;;;;;5096566;28;20287;-71
2023/05/06 03:53:02;;;;;;;;;;;11.50;99.90;;;;;;5095666;28;19977;-70
2023/05/06 03:55:27;;;;;;;;;;;11.50;99.90;;;;;;5098093;28;19932;-71
2023/05/06 03:57:53;;;;;;;;;;;11.50;99.90;;;;;;5096496;28;20015;-71
2023/05/06 04:00:19;;;;;;;;;;;11.50;99.90;;;;;;5097345;28;20028;-71
2023/05/06 04:02:44;;;;;;;;;;;11.50;99.90;;;;;;5096138;28;20382;-71
2023/05/06 04:05:09;;;;;;;;;;;11.40;99.90;;;;;;5097332;28;19932;-71
2023/05/06 04:07:35;;;;;;;;;;;11.40;99.90;;;;;;5097112;28;19931;-71
2023/05/06 04:10:01;;;;;;;;;;;11.40;99.90;;;;;;5096343;28;19924;-71
2023/05/06 04:12:26;;;;;;;;;;;11.40;99.90;;;;;;5092971;28;20014;-71
2023/05/06 04:14:52;;;;;;;;;;;11.40;99.90;;;;;;5092500;28;19985;-70
2023/05/06 04:17:17;;;;;;;;;;;11.40;99.90;;;;;;5093068;28;19969;-71
2023/05/06 04:19:43;;;;;;;;;;;11.50;99.90;;;;;;5091766;28;19924;-71
2023/05/06 04:22:08;;;;;;;;;;;11.50;99.90;;;;;;5093073;28;19930;-71
2023/05/06 04:24:34;;;;;;;;;;;11.50;99.90;;;;;;5092100;28;19928;-71
2023/05/06 04:26:59;;;;;;;;;;;11.50;99.90;;;;;;5092030;28;19932;-71
2023/05/06 04:29:25;;;;;;;;;;;11.50;99.90;;;;;;5090799;28;19932;-71
2023/05/06 04:31:52;;;;;;;;;;;11.50;99.90;;;;;;5092298;28;19928;-71
2023/05/06 04:34:18;;;;;;;;;;;11.50;99.90;;;;;;5090458;28;19939;-71
2023/05/06 04:36:44;;;;;;;;;;;11.50;99.90;;;;;;5091006;28;19932;-71
2023/05/06 04:39:10;;;;;;;;;;;11.50;99.90;;;;;;5092519;28;19924;-71
2023/05/06 04:41:36;;;;;;;;;;;11.50;99.90;;;;;;5092585;28;19928;-71
2023/05/06 04:44:02;;;;;;;;;;;11.50;99.90;;;;;;5091880;28;20049;-70
2023/05/06 04:46:28;;;;;;;;;;;11.50;99.90;;;;;;5093103;28;19937;-71
2023/05/06 04:48:54;;;;;;;;;;;11.50;99.90;;;;;;5090731;28;20425;-71
2023/05/06 04:51:19;;;;;;;;;;;11.50;99.90;;;;;;5092962;28;19974;-71
2023/05/06 04:53:45;;;;;;;;;;;11.50;99.90;;;;;;5091083;28;19928;-71
2023/05/06 04:56:11;;;;;;;;;;;11.60;99.90;;;;;;5093111;28;20014;-71
2023/05/06 04:58:36;;;;;;;;;;;11.50;99.90;;;;;;5091477;28;19983;-71
2023/05/06 05:01:03;;;;;;;;;;;11.50;99.90;;;;;;5091874;28;19969;-70
2023/05/06 05:03:28;;;;;;;;;;;11.50;99.90;;;;;;5092386;28;19924;-71
2023/05/06 05:05:54;;;;;;;;;;;11.60;99.90;;;;;;5091610;28;20026;-71
2023/05/06 05:08:20;;;;;;;;;;;11.60;99.90;;;;;;5092690;28;20349;-71
2023/05/06 05:10:45;;;;;;;;;;;11.60;99.90;;;;;;5095212;28;19924;-71
2023/05/06 05:13:11;;;;;;;;;;;11.70;99.90;;;;;;5091451;28;19924;-71
2023/05/06 05:15:38;;;;;;;;;;;11.70;99.90;;;;;;5090326;28;19935;-71
2023/05/06 05:18:03;;;;;;;;;;;11.70;99.90;;;;;;5091990;28;20372;-71
2023/05/06 05:20:29;;;;;;;;;;;11.70;99.90;;;;;;5090695;28;20023;-71
2023/05/06 05:22:55;;;;;;;;;;;11.70;99.90;;;;;;5090868;28;20480;-71
2023/05/06 05:25:20;;;;;;;;;;;11.70;99.90;;;;;;5097052;28;19970;-71
2023/05/06 05:27:46;;;;;;;;;;;11.80;99.90;;;;;;5092608;28;19924;-71
2023/05/06 05:30:12;;;;;;;;;;;11.80;99.90;;;;;;5097491;28;20015;-71
2023/05/06 05:32:37;;;;;;;;;;;11.70;99.90;;;;;;5096406;28;19935;-71
2023/05/06 05:35:03;;;;;;;;;;;11.80;99.90;;;;;;5090756;28;20370;-71
2023/05/06 05:37:28;;;;;;;;;;;11.80;99.90;;;;;;5072554;28;19924;-70
2023/05/06 05:39:54;;;;;;;;;;;11.80;99.90;;;;;;5093048;28;20314;-71
2023/05/06 05:42:20;;;;;;;;;;;11.80;99.90;;;;;;5093817;27;20323;-71
2023/05/06 05:44:45;;;;;;;;;;;11.80;99.90;;;;;;5090861;28;19925;-71
2023/05/06 05:47:11;;;;;;;;;;;11.80;99.90;;;;;;5090837;28;19924;-70
2023/05/06 05:49:37;;;;;;;;;;;11.80;99.90;;;;;;5091055;28;20370;-70
2023/05/06 05:52:02;;;;;;;;;;;11.90;99.90;;;;;;5072552;28;20040;-71
2023/05/06 05:54:28;;;;;;;;;;;11.90;99.90;;;;;;5090335;28;19924;-71
2023/05/06 05:56:54;;;;;;;;;;;12.00;99.90;;;;;;5089270;28;20500;-70
2023/05/06 05:59:19;;;;;;;;;;;12.00;99.90;;;;;;5090652;28;19932;-71
2023/05/06 06:01:45;;;;;;;;;;;12.00;99.90;;;;;;5089765;28;20310;-71
2023/05/06 06:04:10;;;;;;;;;;;12.10;99.90;;;;;;5072671;28;19931;-70
2023/05/06 06:06:36;;;;;;;;;;;12.10;99.90;;;;;;5089931;28;19977;-70
2023/05/06 06:09:01;;;;;;;;;;;12.10;99.90;;;;;;5089794;28;19963;-69
2023/05/06 06:11:27;;;;;;;;;;;12.10;99.90;;;;;;5089022;28;20032;-70
2023/05/06 06:13:53;;;;;;;;;;;12.20;99.90;;;;;;5088415;28;19924;-70
2023/05/06 06:16:18;;;;;;;;;;;12.20;99.90;;;;;;5089727;28;19947;-70
2023/05/06 06:18:44;;;;;;;;;;;12.30;99.90;;;;;;5090114;28;19934;-70
2023/05/06 06:21:09;;;;;;;;;;;12.30;99.90;;;;;;5088803;28;19928;-70
2023/05/06 06:23:35;;;;;;;;;;;12.30;99.90;;;;;;5088735;28;19971;-70
2023/05/06 06:26:03;;;;;;;;;;;12.30;99.90;;;;;;5089843;28;19928;-70
2023/05/06 06:28:29;;;;;;;;;;;12.40;99.90;;;;;;5090518;28;19924;-70
2023/05/06 06:30:54;;;;;;;;;;;12.40;99.90;;;;;;5095297;28;19924;-70
2023/05/06 06:33:20;;;;;;;;;;;12.40;99.90;;;;;;5095435;28;19978;-72
2023/05/06 06:35:45;;;;;;;;;;;12.40;99.90;;;;;;5097076;28;20286;-72
2023/05/06 06:38:11;;;;;;;;;;;12.50;99.90;;;;;;5076646;28;19931;-72
2023/05/06 06:40:36;;;;;;;;;;;12.60;99.90;;;;;;5096951;28;20443;-72
2023/05/06 06:43:02;;;;;;;;;;;12.60;99.90;;;;;;5090183;28;19977;-73
2023/05/06 06:45:27;;;;;;;;;;;12.60;99.90;;;;;;5092967;28;19924;-72
2023/05/06 06:47:53;;;;;;;;;;;12.70;99.90;;;;;;5088029;28;19928;-72
2023/05/06 06:50:18;;;;;;;;;;;12.70;99.90;;;;;;5089820;28;19977;-72
2023/05/06 06:52:44;;;;;;;;;;;12.70;99.90;;;;;;5089165;28;20294;-72
2023/05/06 06:55:10;;;;;;;;;;;12.70;99.90;;;;;;5071552;28;19931;-72
2023/05/06 06:57:36;;;;;;;;;;;12.70;99.90;;;;;;5088455;28;19970;-73
2023/05/06 07:00:03;;;;;;;;;;;12.80;99.90;;;;;;5088447;28;19932;-73
2023/05/06 07:02:28;;;;;;;;;;;12.90;99.90;;;;;;5089214;28;19999;-72
2023/05/06 07:04:54;;;;;;;;;;;13.00;99.90;;;;;;5088824;28;19939;-73
2023/05/06 07:07:19;;;;;;;;;;;13.00;99.90;;;;;;5087877;28;20404;-72
2023/05/06 07:09:45;;;;;;;;;;;13.00;99.90;;;;;;5090157;28;19932;-73
2023/05/06 07:12:10;;;;;;;;;;;13.00;99.90;;;;;;5094942;28;20492;-72
2023/05/06 07:14:36;;;;;;;;;;;13.00;99.90;;;;;;5081751;28;19931;-73
2023/05/06 07:17:02;;;;;;;;;;;13.10;99.90;;;;;;5088633;28;20290;-73
2023/05/06 07:19:27;;;;;;;;;;;13.10;99.90;;;;;;5091722;28;20391;-73
2023/05/06 07:21:53;;;;;;;;;;;13.20;99.90;;;;;;5084021;28;19939;-73
2023/05/06 07:24:18;;;;;;;;;;;13.30;99.90;;;;;;5086376;28;20019;-72
2023/05/06 07:26:44;;;;;;;;;;;13.30;99.90;;;;;;5083810;28;19925;-72
2023/05/06 07:29:09;;;;;;;;;;;13.50;99.90;;;;;;5075013;28;19928;-72
2023/05/06 07:31:35;;;;;;;;;;;13.60;99.90;;;;;;5081417;28;20314;-72
2023/05/06 07:34:01;;;;;;;;;;;13.60;99.90;;;;;;5081869;28;19924;-72
2023/05/06 07:36:27;;;;;;;;;;;13.60;99.90;;;;;;5071183;28;19930;-72
2023/05/06 07:38:53;;;;;;;;;;;13.70;99.90;;;;;;5068591;28;19928;-73
2023/05/06 07:41:18;;;;;;;;;;;13.70;99.90;;;;;;5071163;28;19946;-72
2023/05/06 07:43:44;;;;;;;;;;;13.80;99.90;;;;;;5076177;28;20031;-71
2023/05/06 07:46:09;;;;;;;;;;;13.80;99.90;;;;;;5081992;28;19924;-72
2023/05/06 07:48:35;;;;;;;;;;;13.90;99.90;;;;;;5085219;28;19928;-72
2023/05/06 07:51:01;;;;;;;;;;;13.90;99.90;;;;;;5075987;28;20303;-72
2023/05/06 07:53:27;;;;;;;;;;;13.90;99.90;;;;;;5075084;28;20386;-71
2023/05/06 07:55:55;;;;;;;;;;;14.00;99.90;;;;;;5091452;28;19977;-72
2023/05/06 07:58:21;;;;;;;;;;;14.00;99.90;;;;;;5093698;28;19934;-71
2023/05/06 08:00:46;;;;;;;;;;;14.00;99.90;;;;;;5092662;28;19924;-72
2023/05/06 08:03:12;;;;;;;;;;;14.00;99.90;;;;;;5092388;28;20041;-70
2023/05/06 08:05:38;;;;;;;;;;;14.00;99.90;;;;;;5092521;28;19931;-71
2023/05/06 08:08:04;;;;;;;;;;;14.00;99.90;;;;;;5092940;28;19928;-70
2023/05/06 08:10:29;;;;;;;;;;;14.00;99.90;;;;;;5090060;28;19967;-70
2023/05/06 08:12:55;;;;;;;;;;;14.00;99.90;;;;;;5093346;28;19962;-71
2023/05/06 08:15:20;;;;;;;;;;;14.00;99.90;;;;;;5092182;28;19967;-71
2023/05/06 08:17:46;;;;;;;;;;;14.00;99.90;;;;;;5095274;28;19938;-71
2023/05/06 08:20:12;;;;;;;;;;;14.00;99.90;;;;;;5092635;28;19924;-71
2023/05/06 08:22:38;;;;;;;;;;;14.00;99.90;;;;;;5094036;28;20908;-71
2023/05/06 08:25:04;;;;;;;;;;;14.10;99.90;;;;;;5094051;28;20352;-71
2023/05/06 08:27:29;;;;;;;;;;;14.10;99.90;;;;;;5096209;27;19930;-71
2023/05/06 08:29:55;;;;;;;;;;;14.20;99.90;;;;;;5091977;28;19930;-71
2023/05/06 08:32:20;;;;;;;;;;;14.30;99.90;;;;;;5091723;28;20452;-71
2023/05/06 08:34:46;;;;;;;;;;;14.40;99.90;;;;;;5092391;28;20302;-71
2023/05/06 08:37:11;;;;;;;;;;;14.50;99.90;;;;;;5091501;28;19977;-71
2023/05/06 08:39:37;;;;;;;;;;;14.60;99.90;;;;;;5092220;28;21046;-71
2023/05/06 08:42:03;;;;;;;;;;;14.70;99.90;;;;;;5092103;28;19971;-71
2023/05/06 08:44:29;;;;;;;;;;;14.80;99.90;;;;;;5092685;28;20011;-71
2023/05/06 08:46:55;;;;;;;;;;;15.00;99.90;;;;;;5091983;28;20011;-71
2023/05/06 08:49:20;;;;;;;;;;;15.10;99.90;;;;;;5075356;28;19971;-71
2023/05/06 08:51:47;;;;;;;;;;;15.20;99.90;;;;;;5094144;28;19976;-71
2023/05/06 08:54:13;;;;;;;;;;;15.20;99.90;;;;;;5092069;28;19920;-72
2023/05/06 08:56:42;;;;;;;;;;;15.20;99.90;;;;;;5092617;28;19924;-71
2023/05/06 08:59:11;;;;;;;;;;;15.30;99.90;;;;;;5092918;28;19977;-72
2023/05/06 09:01:36;;;;;;;;;;;15.50;99.90;;;;;;5091294;28;20271;-72
2023/05/06 09:04:06;;;;;;;;;;;15.50;99.90;;;;;;5092627;28;19934;-72
2023/05/06 09:06:31;;;;;;;;;;;15.60;99.90;;;;;;5093631;28;19924;-73
2023/05/06 09:08:57;;;;;;;;;;;15.60;99.90;;;;;;5092574;28;19950;-73
2023/05/06 09:11:24;;;;;;;;;;;15.80;99.90;;;;;;5093376;28;19931;-73
2023/05/06 09:13:50;;;;;;;;;;;15.90;99.90;;;;;;5087205;28;19950;-73
2023/05/06 09:16:26;;;;;;;;;;;16.10;99.90;;;;;;5093916;28;19924;-73
2023/05/06 09:18:51;;;;;;;;;;;16.30;99.90;;;;;;5085798;28;20007;-73
2023/05/06 09:21:17;;;;;;;;;;;16.50;99.90;;;;;;5093024;28;20034;-73
2023/05/06 09:23:42;;;;;;;;;;;16.60;99.90;;;;;;5092051;28;19931;-73
2023/05/06 09:26:08;;;;;;;;;;;16.70;99.90;;;;;;5089330;28;19931;-73
2023/05/06 09:28:33;;;;;;;;;;;16.90;99.90;;;;;;5093087;28;19928;-73
2023/05/06 09:30:59;;;;;;;;;;;17.20;99.90;;;;;;5091307;28;19967;-73
2023/05/06 09:33:25;;;;;;;;;;;17.60;99.90;;;;;;5089971;28;19990;-73
2023/05/06 09:35:51;;;;;;;;;;;17.90;99.90;;;;;;5089976;28;19963;-73
2023/05/06 09:38:16;;;;;;;;;;;18.20;99.90;;;;;;5092019;28;20368;-73
2023/05/06 09:40:42;;;;;;;;;;;18.40;99.90;;;;;;5091881;28;20022;-72
2023/05/06 09:43:09;;;;;;;;;;;18.60;99.90;;;;;;5092803;28;19974;-72
2023/05/06 09:45:35;;;;;;;12.30;9.05;;;18.90;99.90;;;;;;5089928;28;20503;-69
2023/05/06 09:48:01;;;;;;;12.00;9.85;;;19.20;99.90;;;;;;5086981;28;20406;-70
2023/05/06 09:50:27;;;;;;;33.53;13.48;;;19.50;99.90;;;;;;5096344;28;20402;-69
2023/05/06 09:52:54;;;;;;;17.30;9.43;;;19.60;99.90;;;;;;5094346;28;20394;-70
2023/05/06 09:55:21;;;;;;;13.18;8.48;;;19.80;99.90;;;;;;5095741;28;20429;-70
2023/05/06 09:57:48;;;;;;;10.77;6.77;;;19.80;99.90;;;;;;5095375;28;20408;-70
2023/05/06 10:00:14;;;;;;;;;;;20.00;99.90;;;;;;5099030;28;20075;-73
2023/05/06 10:02:40;;;;;;;10.35;6.00;;;20.20;99.90;;;;;;5102243;28;20301;-73
2023/05/06 10:05:07;;;;;;;;;;;20.40;99.90;;;;;;5097374;28;20052;-73
2023/05/06 10:07:34;;;;;;;;;;;20.60;99.90;;;;;;5095349;28;19924;-70
2023/05/06 10:10:00;;;;;;;;;;;20.80;99.90;;;;;;5097522;28;19931;-71
2023/05/06 10:12:27;;;;;;;;;;;21.10;99.90;;;;;;5091002;28;20052;-71
2023/05/06 10:14:52;;;;;;;14.95;8.38;;;21.20;99.90;;;;;;5090126;28;19920;-71
2023/05/06 10:17:23;;;;;;;13.00;8.50;;;21.50;99.90;;;;;;5087911;28;20040;-71
2023/05/06 10:19:51;;;;;;;10.65;7.55;;;21.60;99.90;;;;;;5089657;28;20047;-71
2023/05/06 10:22:32;;;;;;;9.50;7.97;;;21.70;99.90;;;;;;5077737;28;20436;-72
2023/05/06 10:25:02;;;;;;;10.05;8.13;;;21.80;99.90;;;;;;5093146;28;20420;-72
2023/05/06 10:27:29;;;;;;;;;;;22.00;99.90;;;;;;5091647;28;20052;-72
2023/05/06 10:29:58;;;;;;;8.43;6.28;;;22.10;99.90;;;;;;5089607;28;19999;-72
2023/05/06 10:32:29;;;;;;;8.75;7.65;;;22.10;99.90;;;;;;5082714;28;20429;-72
2023/05/06 10:34:56;;;;;;;8.85;7.38;;;22.10;99.90;;;;;;5087923;28;20414;-72
2023/05/06 10:37:25;;;;;;;8.13;6.90;;;22.30;99.90;;;;;;5088572;28;20775;-72
2023/05/06 10:39:55;;;;;;;8.02;6.38;;;22.50;99.90;;;;;;5087900;28;20595;-72
2023/05/06 10:42:29;;;;;;;;;;;22.70;99.90;;;;;;5088752;28;20096;-73
2023/05/06 10:44:56;;;;;;;;;;;23.00;99.90;;;;;;5088330;28;19927;-72
2023/05/06 10:47:21;;;;;;;7.63;5.70;;;23.00;99.90;;;;;;5089197;28;19924;-72
2023/05/06 10:50:07;;;;;;;;;;;22.90;99.90;;;;;;5088278;28;20061;-72
2023/05/06 10:52:43;;;;;;;;;;;22.70;99.90;;;;;;5089072;28;19923;-72
2023/05/06 10:55:25;;;;;;;;;;;22.10;99.90;;;;;;5076761;28;19960;-72
2023/05/06 10:57:53;;;;;;;;;;;21.80;99.90;;;;;;5088378;28;20010;-72
2023/05/06 11:00:19;;;;;;;;;;;21.60;99.90;;;;;;5090167;28;19967;-72
2023/05/06 11:02:44;;;;;;;;;;;21.60;99.90;;;;;;5091064;28;19966;-72
2023/05/06 11:05:10;;;;;;;;;;;21.80;99.90;;;;;;5090561;28;19927;-72
2023/05/06 11:07:35;;;;;;;;;;;22.10;99.90;;;;;;5089474;28;20436;-72
2023/05/06 11:10:05;;;;;;;;;;;22.20;99.90;;;;;;5090496;28;19920;-72
2023/05/06 11:12:48;;;;;;;6.78;5.13;;;22.20;99.90;;;;;;5086567;28;20332;-72
2023/05/06 11:15:36;;;;;;;;;;;22.20;99.90;;;;;;5081606;28;20052;-72
2023/05/06 11:18:20;;;;;;;;;;;22.40;99.90;;;;;;5079463;28;20318;-72
2023/05/06 11:20:46;;;;;;;;;;;22.50;99.90;;;;;;5093308;28;19920;-72
2023/05/06 11:23:11;;;;;;;;;;;22.70;99.90;;;;;;5094344;28;20445;-72
2023/05/06 11:25:38;;;;;;;;;;;22.70;99.90;;;;;;5094062;28;20015;-72
2023/05/06 11:28:07;;;;;;;;;;;22.80;99.90;;;;;;5094716;28;19966;-72
2023/05/06 11:30:33;;;;;;;;;;;22.90;99.90;;;;;;5085360;28;19930;-72
2023/05/06 11:33:01;;;;;;;;;;;22.90;99.90;;;;;;5085878;28;20031;-72
2023/05/06 11:35:33;;;;;;;;;;;23.00;99.90;;;;;;5059355;28;19928;-72
2023/05/06 11:37:58;;;;;;;;;;;23.00;99.90;;;;;;5077710;28;19966;-72
2023/05/06 11:40:27;;;;;;;;;;;23.00;99.90;;;;;;5080930;28;19919;-72
2023/05/06 11:42:53;;;;;;;;;;;23.10;99.90;;;;;;5075512;28;20382;-73
2023/05/06 11:45:18;;;;;;;;;;;23.20;99.90;;;;;;5078511;28;19927;-72
2023/05/06 11:47:44;;;;;;;;;;;23.20;99.90;;;;;;5082567;28;19943;-73
2023/05/06 11:50:10;;;;;;;;;;;23.30;99.90;;;;;;5074287;28;19924;-73
2023/05/06 11:52:35;;;;;;;;;;;23.50;99.90;;;;;;5082878;28;20433;-72
2023/05/06 11:55:01;;;;;;;;;;;23.60;99.90;;;;;;5079356;28;20374;-73
2023/05/06 11:57:26;;;;;;;;;;;23.60;99.90;;;;;;5073780;28;20390;-72
2023/05/06 11:59:52;;;;;;;;;;;23.40;99.90;;;;;;5089869;28;19938;-72
2023/05/06 12:02:19;;;;;;;;;;;23.10;99.90;;;;;;5091508;28;19935;-72
2023/05/06 12:04:45;;;;;;;;;;;23.00;99.90;;;;;;5091774;28;19924;-71
2023/05/06 12:07:12;;;;;;;;;;;22.80;99.90;;;;;;5093183;28;19978;-72
2023/05/06 12:09:39;;;;;;;;;;;22.50;99.90;;;;;;5091827;28;20011;-72
2023/05/06 12:12:05;;;;;;;;;;;22.10;99.90;;;;;;5091433;28;19963;-72
2023/05/06 12:14:31;;;;;;;;;;;22.00;99.90;;;;;;5091945;28;19923;-72
2023/05/06 12:16:57;;;;;;;;;;;21.80;99.90;;;;;;5091767;28;19985;-72
2023/05/06 12:19:23;;;;;;;;;;;21.50;99.90;;;;;;5091130;28;20294;-72
2023/05/06 12:21:48;;;;;;;;;;;21.20;99.90;;;;;;5091528;28;19945;-72
2023/05/06 12:24:14;;;;;;;;;;;21.00;99.90;;;;;;5093167;28;19924;-72
2023/05/06 12:26:43;;;;;;;;;;;20.80;99.90;;;;;;5074322;28;20301;-72
2023/05/06 12:29:09;;;;;;;;;;;20.80;99.90;;;;;;5083873;28;19924;-72
2023/05/06 12:31:35;;;;;;;;;;;20.80;99.90;;;;;;5087815;28;20023;-72
2023/05/06 12:34:01;;;;;;;;;;;20.80;99.90;;;;;;5092948;28;20011;-72
2023/05/06 12:36:27;;;;;;;;;;;20.80;99.90;;;;;;5091731;28;19920;-72
2023/05/06 12:38:56;;;;;;;;;;;20.80;99.90;;;;;;5099316;28;19926;-71
2023/05/06 12:41:23;;;;;;;;;;;20.60;99.90;;;;;;5096349;28;19920;-72
2023/05/06 12:43:49;;;;;;;;;;;20.40;99.90;;;;;;5091151;28;20439;-72
2023/05/06 12:46:15;;;;;;;;;;;20.30;99.90;;;;;;5092135;28;19920;-71
2023/05/06 12:48:54;;;;;;;;;;;20.20;99.90;;;;;;5090884;28;19945;-72
2023/05/06 12:51:20;;;;;;;;;;;20.30;99.90;;;;;;5090316;28;19971;-72
2023/05/06 12:53:46;;;;;;;;;;;20.30;99.90;;;;;;5091872;28;19962;-72
2023/05/06 12:56:11;;;;;;;;;;;20.30;99.90;;;;;;5091802;28;19935;-71
2023/05/06 12:58:38;;;;;;;;;;;20.20;99.90;;;;;;5091430;28;20380;-70
2023/05/06 13:01:05;;;;;;;;;;;20.10;99.90;;;;;;5090162;28;20554;-70
2023/05/06 13:03:30;;;;;;;;;;;20.10;99.90;;;;;;5092023;28;20014;-69
2023/05/06 13:05:56;;;;;;;;;;;20.10;99.90;;;;;;5091398;28;20006;-69
2023/05/06 13:08:21;;;;;;;;;;;20.10;99.90;;;;;;5091739;28;20640;-70
2023/05/06 13:10:47;;;;;;;;;;;20.10;99.90;;;;;;5091664;28;20003;-70
2023/05/06 13:13:12;;;;;;;;;;;20.00;99.90;;;;;;5090303;28;19920;-70
2023/05/06 13:15:38;;;;;;;;;;;20.00;99.90;;;;;;5091315;28;19928;-70
2023/05/06 13:18:03;;;;;;;;;;;20.00;99.90;;;;;;5073384;28;19967;-70
2023/05/06 13:20:29;;;;;;;;;;;20.00;99.90;;;;;;5091451;28;19980;-70
2023/05/06 13:22:55;;;;;;;;;;;19.90;99.90;;;;;;5090140;28;19920;-70
2023/05/06 13:25:20;;;;;;;;;;;19.90;99.90;;;;;;5090979;28;19934;-69
2023/05/06 13:27:46;;;;;;;;;;;19.90;99.90;;;;;;5091197;28;19920;-71
2023/05/06 13:30:11;;;;;;;;;;;19.90;99.90;;;;;;5079606;28;19973;-71
2023/05/06 13:32:37;;;;;;;;;;;19.80;99.90;;;;;;5102551;28;19978;-71
2023/05/06 13:35:04;;;;;;;;;;;19.80;99.90;;;;;;5089702;28;19920;-70
2023/05/06 13:37:30;;;;;;;;;;;19.70;99.90;;;;;;5089904;28;19920;-71
2023/05/06 13:39:56;;;;;;;;;;;19.50;99.90;;;;;;5088967;28;19943;-70
2023/05/06 13:42:22;;;;;;;;;;;19.50;99.90;;;;;;5091675;28;20065;-70
2023/05/06 13:44:47;;;;;;;;;;;19.40;99.90;;;;;;5091498;28;20462;-71
2023/05/06 13:47:13;;;;;;;;;;;19.30;99.90;;;;;;5090371;28;19920;-71
2023/05/06 13:49:39;;;;;;;;;;;19.20;99.90;;;;;;5090029;28;19965;-70
2023/05/06 13:52:05;;;;;;;;;;;19.20;99.90;;;;;;5091383;28;19955;-71
2023/05/06 13:54:30;;;;;;;;;;;19.00;99.90;;;;;;5092127;28;20382;-70
2023/05/06 13:56:57;;;;;;;;;;;18.90;99.90;;;;;;5091549;28;19924;-71
2023/05/06 13:59:22;;;;;;;;;;;18.80;99.90;;;;;;5090622;28;20034;-71
2023/05/06 14:01:48;;;;;;;;;;;18.80;99.90;;;;;;5089519;28;20003;-71
2023/05/06 14:04:14;;;;;;;;;;;18.70;99.90;;;;;;5092431;28;19923;-71
2023/05/06 14:06:40;;;;;;;;;;;18.70;99.90;;;;;;5090485;28;19920;-71